createdAt,value
2018-12-26T00:00:34.901Z,27.80
2018-12-26T00:01:34.931Z,25.80
2018-12-26T00:02:34.721Z,26.40
2018-12-26T00:03:34.640Z,25.80
2018-12-26T00:04:34.543Z,26.90
2018-12-26T00:05:34.462Z,26.20
2018-12-26T00:06:34.359Z,27.00
2018-12-26T00:07:34.271Z,26.80
2018-12-26T00:08:34.201Z,27.10
2018-12-26T00:09:34.096Z,26.50
2018-12-26T00:10:34.000Z,26.80
2018-12-26T00:11:33.911Z,26.90
2018-12-26T00:12:33.832Z,28.60
2018-12-26T00:13:33.744Z,29.20
2018-12-26T00:14:33.646Z,28.20
2018-12-26T00:15:33.557Z,28.60
2018-12-26T00:16:33.471Z,28.70
2018-12-26T00:17:33.377Z,27.80
2018-12-26T00:18:33.334Z,27.70
2018-12-26T00:19:33.218Z,28.70
2018-12-26T00:20:33.118Z,27.60
2018-12-26T00:21:33.014Z,27.00
2018-12-26T00:22:32.931Z,27.80
2018-12-26T00:23:32.878Z,27.20
2018-12-26T00:24:32.746Z,27.30
2018-12-26T00:25:32.655Z,28.40
2018-12-26T00:26:32.572Z,27.20
2018-12-26T00:27:32.475Z,27.70
2018-12-26T00:28:32.394Z,27.20
2018-12-26T00:29:32.314Z,26.50
2018-12-26T00:30:32.214Z,27.20
2018-12-26T00:31:32.120Z,27.40
2018-12-26T00:32:32.037Z,27.40
2018-12-26T00:33:31.942Z,28.70
2018-12-26T00:34:31.870Z,29.20
2018-12-26T00:35:31.765Z,29.60
2018-12-26T00:36:31.671Z,30.60
2018-12-26T00:37:31.593Z,31.10
2018-12-26T00:38:31.496Z,31.40
2018-12-26T00:39:31.415Z,29.20
2018-12-26T00:40:31.325Z,28.40
2018-12-26T00:41:31.224Z,30.00
2018-12-26T00:42:31.132Z,27.90
2018-12-26T00:43:31.052Z,26.80
2018-12-26T00:44:30.974Z,27.80
2018-12-26T00:45:30.871Z,27.80
2018-12-26T00:46:30.779Z,28.20
2018-12-26T00:47:30.690Z,28.00
2018-12-26T00:48:30.600Z,28.20
2018-12-26T00:49:30.525Z,28.00
2018-12-26T00:50:30.417Z,29.50
2018-12-26T00:51:30.335Z,28.90
2018-12-26T00:52:30.241Z,29.10
2018-12-26T00:53:30.154Z,27.90
2018-12-26T00:54:30.083Z,27.30
2018-12-26T00:55:29.975Z,27.00
2018-12-26T00:56:29.879Z,26.50
2018-12-26T00:57:29.802Z,27.60
2018-12-26T00:58:29.701Z,26.60
2018-12-26T00:59:29.616Z,27.00
2018-12-26T01:00:29.536Z,26.10
2018-12-26T01:01:29.437Z,26.20
2018-12-26T01:02:29.340Z,26.70
2018-12-26T01:03:29.267Z,28.00
2018-12-26T01:04:29.166Z,26.50
2018-12-26T01:05:29.112Z,27.20
2018-12-26T01:06:28.981Z,26.00
2018-12-26T01:07:28.899Z,26.20
2018-12-26T01:08:28.813Z,28.40
2018-12-26T01:09:28.715Z,28.00
2018-12-26T01:10:28.636Z,28.30
2018-12-26T01:11:28.543Z,26.90
2018-12-26T01:12:28.448Z,27.20
2018-12-26T01:13:28.367Z,27.00
2018-12-26T01:14:28.271Z,26.30
2018-12-26T01:15:28.195Z,26.90
2018-12-26T01:16:28.089Z,27.40
2018-12-26T01:17:27.998Z,27.80
2018-12-26T01:18:27.913Z,25.60
2018-12-26T01:19:27.816Z,27.70
2018-12-26T01:20:27.799Z,26.60
2018-12-26T01:21:27.644Z,26.00
2018-12-26T01:22:27.548Z,26.30
2018-12-26T01:23:27.469Z,26.40
2018-12-26T01:24:27.376Z,27.30
2018-12-26T01:25:27.305Z,26.10
2018-12-26T01:26:27.198Z,25.10
2018-12-26T01:27:27.107Z,24.80
2018-12-26T01:28:27.012Z,24.80
2018-12-26T01:29:26.928Z,25.00
2018-12-26T01:30:26.858Z,24.90
2018-12-26T01:31:26.746Z,25.60
2018-12-26T01:32:26.658Z,25.50
2018-12-26T01:33:26.567Z,25.50
2018-12-26T01:34:26.471Z,25.20
2018-12-26T01:35:26.395Z,24.10
2018-12-26T01:36:26.310Z,25.40
2018-12-26T01:37:26.209Z,25.30
2018-12-26T01:38:26.119Z,25.60
2018-12-26T01:39:26.028Z,26.10
2018-12-26T01:40:25.935Z,26.30
2018-12-26T01:41:25.862Z,24.80
2018-12-26T01:42:25.754Z,24.20
2018-12-26T01:43:25.663Z,25.40
2018-12-26T01:44:25.585Z,24.60
2018-12-26T01:45:25.487Z,24.80
2018-12-26T01:46:25.407Z,24.40
2018-12-26T01:47:25.310Z,24.70
2018-12-26T01:48:25.214Z,25.90
2018-12-26T01:49:25.133Z,25.80
2018-12-26T01:50:25.040Z,26.90
2018-12-26T01:51:24.965Z,25.20
2018-12-26T01:52:24.856Z,25.60
2018-12-26T01:53:24.765Z,27.00
2018-12-26T01:54:25.679Z,24.90
2018-12-26T01:55:24.586Z,25.40
2018-12-26T01:56:28.090Z,24.90
2018-12-26T01:57:24.421Z,25.50
2018-12-26T01:58:24.317Z,27.20
2018-12-26T01:59:24.232Z,26.50
2018-12-26T02:00:24.145Z,25.30
2018-12-26T02:01:24.080Z,26.00
2018-12-26T02:02:23.958Z,25.40
2018-12-26T02:03:23.870Z,24.60
2018-12-26T02:04:23.778Z,25.10
2018-12-26T02:05:23.692Z,25.20
2018-12-26T02:06:23.607Z,25.30
2018-12-26T02:07:23.527Z,24.90
2018-12-26T02:08:23.423Z,25.70
2018-12-26T02:09:23.329Z,25.00
2018-12-26T02:10:23.245Z,24.70
2018-12-26T02:11:23.147Z,25.90
2018-12-26T02:12:23.081Z,25.20
2018-12-26T02:13:22.971Z,27.00
2018-12-26T02:14:22.904Z,25.80
2018-12-26T02:15:22.791Z,26.40
2018-12-26T02:16:22.706Z,26.70
2018-12-26T02:17:22.624Z,26.50
2018-12-26T02:18:22.518Z,28.30
2018-12-26T02:19:22.436Z,28.30
2018-12-26T02:20:22.342Z,29.50
2018-12-26T02:21:22.254Z,30.20
2018-12-26T02:22:22.179Z,30.10
2018-12-26T02:23:22.070Z,30.70
2018-12-26T02:24:21.987Z,29.50
2018-12-26T02:25:21.901Z,31.20
2018-12-26T02:26:21.798Z,33.00
2018-12-26T02:27:21.723Z,31.70
2018-12-26T02:28:21.628Z,31.00
2018-12-26T02:29:21.534Z,33.10
2018-12-26T02:30:21.451Z,34.50
2018-12-26T02:31:21.356Z,34.10
2018-12-26T02:32:21.279Z,36.50
2018-12-26T02:33:21.173Z,36.10
2018-12-26T02:34:21.089Z,37.30
2018-12-26T02:35:20.991Z,37.40
2018-12-26T02:36:20.908Z,34.20
2018-12-26T02:37:20.826Z,32.90
2018-12-26T02:38:20.728Z,32.90
2018-12-26T02:39:20.636Z,30.80
2018-12-26T02:40:20.551Z,30.20
2018-12-26T02:41:20.453Z,30.90
2018-12-26T02:42:20.384Z,29.70
2018-12-26T02:43:20.279Z,30.20
2018-12-26T02:44:20.182Z,30.30
2018-12-26T02:45:20.093Z,30.50
2018-12-26T02:46:20.006Z,30.70
2018-12-26T02:47:19.928Z,30.20
2018-12-26T02:48:19.824Z,28.40
2018-12-26T02:49:19.742Z,30.60
2018-12-26T02:50:19.642Z,29.30
2018-12-26T02:51:19.561Z,29.30
2018-12-26T02:52:19.491Z,29.60
2018-12-26T02:53:19.381Z,28.60
2018-12-26T02:54:19.284Z,27.80
2018-12-26T02:55:19.199Z,28.90
2018-12-26T02:56:19.104Z,28.40
2018-12-26T02:57:19.022Z,28.10
2018-12-26T02:58:18.946Z,27.70
2018-12-26T02:59:18.836Z,28.80
2018-12-26T03:00:18.757Z,28.50
2018-12-26T03:01:18.661Z,29.40
2018-12-26T03:02:18.564Z,29.20
2018-12-26T03:03:18.502Z,29.20
2018-12-26T03:04:18.393Z,30.40
2018-12-26T03:05:18.296Z,28.70
2018-12-26T03:06:18.211Z,27.70
2018-12-26T03:07:18.114Z,30.10
2018-12-26T03:08:18.046Z,29.40
2018-12-26T03:09:17.940Z,28.90
2018-12-26T03:10:17.845Z,29.10
2018-12-26T03:11:17.757Z,28.50
2018-12-26T03:12:17.675Z,29.90
2018-12-26T03:13:17.604Z,31.20
2018-12-26T03:14:17.496Z,29.40
2018-12-26T03:15:17.402Z,29.80
2018-12-26T03:16:17.316Z,32.50
2018-12-26T03:17:17.223Z,31.30
2018-12-26T03:18:17.132Z,32.30
2018-12-26T03:19:17.056Z,31.00
2018-12-26T03:20:16.963Z,29.60
2018-12-26T03:21:16.862Z,30.50
2018-12-26T03:22:16.773Z,30.80
2018-12-26T03:23:16.676Z,30.70
2018-12-26T03:24:16.617Z,31.70
2018-12-26T03:25:16.503Z,31.90
2018-12-26T03:26:16.414Z,31.50
2018-12-26T03:27:16.323Z,29.70
2018-12-26T03:28:16.228Z,29.50
2018-12-26T03:29:16.160Z,30.10
2018-12-26T03:30:16.053Z,28.80
2018-12-26T03:31:15.960Z,29.60
2018-12-26T03:32:15.876Z,28.90
2018-12-26T03:33:15.785Z,29.90
2018-12-26T03:34:15.715Z,30.50
2018-12-26T03:35:15.599Z,30.20
2018-12-26T03:36:15.523Z,29.90
2018-12-26T03:37:15.419Z,28.50
2018-12-26T03:38:15.332Z,30.20
2018-12-26T03:39:15.256Z,28.70
2018-12-26T03:40:15.155Z,28.90
2018-12-26T03:41:15.061Z,29.10
2018-12-26T03:42:15.038Z,29.20
2018-12-26T03:43:14.886Z,28.70
2018-12-26T03:44:14.838Z,30.00
2018-12-26T03:45:14.702Z,30.00
2018-12-26T03:46:14.625Z,29.60
2018-12-26T03:47:14.519Z,30.60
2018-12-26T03:48:14.435Z,30.80
2018-12-26T03:49:14.341Z,30.00
2018-12-26T03:50:14.274Z,28.80
2018-12-26T03:51:14.166Z,29.50
2018-12-26T03:52:14.079Z,30.20
2018-12-26T03:53:13.986Z,29.80
2018-12-26T03:54:13.900Z,29.00
2018-12-26T03:55:13.815Z,28.60
2018-12-26T03:56:13.718Z,28.70
2018-12-26T03:57:13.627Z,28.00
2018-12-26T03:58:13.535Z,29.00
2018-12-26T03:59:13.447Z,28.80
2018-12-26T04:00:13.367Z,28.90
2018-12-26T04:01:13.264Z,27.80
2018-12-26T04:02:13.180Z,27.60
2018-12-26T04:03:13.083Z,29.20
2018-12-26T04:04:12.994Z,29.60
2018-12-26T04:05:12.924Z,29.60
2018-12-26T04:06:12.813Z,29.50
2018-12-26T04:07:12.724Z,28.60
2018-12-26T04:08:12.640Z,30.90
2018-12-26T04:09:12.544Z,34.20
2018-12-26T04:10:12.480Z,34.20
2018-12-26T04:11:12.375Z,32.90
2018-12-26T04:12:12.344Z,32.30
2018-12-26T04:13:12.183Z,33.80
2018-12-26T04:14:12.100Z,33.10
2018-12-26T04:15:12.027Z,33.00
2018-12-26T04:16:11.923Z,34.90
2018-12-26T04:17:11.833Z,32.20
2018-12-26T04:18:11.737Z,31.80
2018-12-26T04:19:11.652Z,32.00
2018-12-26T04:20:11.577Z,31.30
2018-12-26T04:21:11.473Z,33.80
2018-12-26T04:22:11.382Z,33.40
2018-12-26T04:23:11.288Z,31.70
2018-12-26T04:24:11.202Z,30.50
2018-12-26T04:25:11.116Z,30.70
2018-12-26T04:26:11.030Z,29.50
2018-12-26T04:27:15.459Z,29.70
2018-12-26T04:28:10.847Z,29.70
2018-12-26T04:29:10.757Z,29.30
2018-12-26T04:30:10.662Z,28.40
2018-12-26T04:31:10.587Z,28.20
2018-12-26T04:32:10.487Z,28.10
2018-12-26T04:33:10.391Z,27.70
2018-12-26T04:34:10.300Z,28.00
2018-12-26T04:35:10.217Z,27.90
2018-12-26T04:36:10.137Z,27.90
2018-12-26T04:37:10.030Z,28.50
2018-12-26T04:38:09.951Z,29.10
2018-12-26T04:39:09.850Z,28.30
2018-12-26T04:40:09.766Z,28.70
2018-12-26T04:41:09.685Z,28.80
2018-12-26T04:42:09.589Z,29.10
2018-12-26T04:43:09.492Z,28.70
2018-12-26T04:44:09.407Z,30.20
2018-12-26T04:45:09.312Z,30.50
2018-12-26T04:46:09.248Z,30.80
2018-12-26T04:47:09.132Z,28.50
2018-12-26T04:48:09.047Z,28.80
2018-12-26T04:49:08.967Z,29.40
2018-12-26T04:50:08.887Z,29.10
2018-12-26T04:51:08.953Z,28.10
2018-12-26T04:52:08.694Z,28.30
2018-12-26T04:53:08.600Z,27.60
2018-12-26T04:54:08.508Z,28.00
2018-12-26T04:55:08.414Z,29.00
2018-12-26T04:56:08.333Z,28.30
2018-12-26T04:57:08.248Z,29.20
2018-12-26T04:58:08.150Z,27.60
2018-12-26T04:59:08.053Z,30.20
2018-12-26T05:00:07.969Z,30.40
2018-12-26T05:01:07.882Z,30.10
2018-12-26T05:02:07.801Z,29.50
2018-12-26T05:03:07.695Z,28.50
2018-12-26T05:04:07.611Z,28.50
2018-12-26T05:05:07.517Z,29.90
2018-12-26T05:06:07.430Z,32.20
2018-12-26T05:07:07.361Z,33.20
2018-12-26T05:08:07.246Z,31.40
2018-12-26T05:09:07.159Z,31.80
2018-12-26T05:10:07.073Z,30.40
2018-12-26T05:11:06.976Z,32.80
2018-12-26T05:12:06.904Z,33.40
2018-12-26T05:13:06.811Z,33.60
2018-12-26T05:14:06.708Z,33.50
2018-12-26T05:15:06.623Z,33.80
2018-12-26T05:16:06.528Z,34.20
2018-12-26T05:17:06.459Z,34.50
2018-12-26T05:18:06.351Z,33.80
2018-12-26T05:19:06.267Z,34.00
2018-12-26T05:20:06.219Z,34.60
2018-12-26T05:21:06.089Z,31.80
2018-12-26T05:22:06.003Z,32.00
2018-12-26T05:23:05.899Z,31.40
2018-12-26T05:24:05.810Z,30.70
2018-12-26T05:25:05.730Z,30.50
2018-12-26T05:26:05.631Z,31.80
2018-12-26T05:27:05.569Z,33.30
2018-12-26T05:28:05.452Z,34.60
2018-12-26T05:29:05.364Z,33.70
2018-12-26T05:30:05.277Z,34.50
2018-12-26T05:31:05.191Z,35.20
2018-12-26T05:32:05.114Z,35.50
2018-12-26T05:33:05.012Z,32.80
2018-12-26T05:34:04.916Z,33.90
2018-12-26T05:35:04.824Z,32.60
2018-12-26T05:36:04.741Z,31.90
2018-12-26T05:37:04.679Z,30.70
2018-12-26T05:38:04.555Z,32.10
2018-12-26T05:39:04.471Z,30.40
2018-12-26T05:40:04.377Z,30.50
2018-12-26T05:41:04.295Z,30.40
2018-12-26T05:42:04.197Z,30.50
2018-12-26T05:43:04.128Z,30.00
2018-12-26T05:44:04.021Z,29.40
2018-12-26T05:45:03.933Z,30.10
2018-12-26T05:46:03.853Z,30.70
2018-12-26T05:47:03.747Z,32.20
2018-12-26T05:48:03.687Z,32.30
2018-12-26T05:49:03.577Z,30.70
2018-12-26T05:50:03.481Z,31.10
2018-12-26T05:51:03.398Z,31.20
2018-12-26T05:52:03.321Z,32.10
2018-12-26T05:53:03.223Z,33.00
2018-12-26T05:54:03.122Z,31.70
2018-12-26T05:55:03.038Z,32.70
2018-12-26T05:56:02.952Z,34.20
2018-12-26T05:57:02.861Z,33.70
2018-12-26T05:58:02.778Z,33.40
2018-12-26T05:59:02.681Z,33.20
2018-12-26T06:00:02.591Z,34.90
2018-12-26T06:01:02.502Z,34.10
2018-12-26T06:02:02.410Z,33.70
2018-12-26T06:03:02.347Z,34.50
2018-12-26T06:04:02.235Z,33.80
2018-12-26T06:05:02.142Z,33.60
2018-12-26T06:06:02.060Z,34.30
2018-12-26T06:07:01.965Z,33.50
2018-12-26T06:08:01.876Z,33.30
2018-12-26T06:09:01.806Z,33.50
2018-12-26T06:10:01.708Z,33.00
2018-12-26T06:11:01.611Z,33.60
2018-12-26T06:12:01.526Z,35.70
2018-12-26T06:13:01.428Z,34.90
2018-12-26T06:14:01.358Z,34.20
2018-12-26T06:15:01.260Z,35.20
2018-12-26T06:16:01.161Z,34.80
2018-12-26T06:17:01.094Z,35.80
2018-12-26T06:18:00.982Z,35.50
2018-12-26T06:19:00.920Z,34.70
2018-12-26T06:20:00.807Z,34.40
2018-12-26T06:21:00.724Z,34.20
2018-12-26T06:22:00.634Z,34.60
2018-12-26T06:23:00.545Z,34.60
2018-12-26T06:24:00.467Z,34.70
2018-12-26T06:25:00.367Z,34.20
2018-12-26T06:26:00.281Z,35.20
2018-12-26T06:27:00.222Z,35.20
2018-12-26T06:28:00.096Z,34.00
2018-12-26T06:29:00.030Z,35.10
2018-12-26T06:29:59.922Z,34.10
2018-12-26T06:30:59.831Z,34.50
2018-12-26T06:31:59.761Z,34.20
2018-12-26T06:32:59.664Z,34.70
2018-12-26T06:33:59.582Z,33.70
2018-12-26T06:34:59.487Z,33.40
2018-12-26T06:35:59.402Z,32.80
2018-12-26T06:36:59.306Z,33.40
2018-12-26T06:38:01.427Z,35.00
2018-12-26T06:38:59.143Z,34.70
2018-12-26T06:39:59.034Z,33.70
2018-12-26T06:40:58.953Z,34.30
2018-12-26T06:41:58.858Z,32.30
2018-12-26T06:42:58.777Z,32.90
2018-12-26T06:43:58.728Z,34.00
2018-12-26T06:44:58.593Z,32.40
2018-12-26T06:45:58.509Z,32.50
2018-12-26T06:46:58.415Z,33.60
2018-12-26T06:47:58.327Z,33.10
2018-12-26T06:48:58.245Z,34.10
2018-12-26T06:49:58.160Z,33.40
2018-12-26T06:50:58.074Z,35.10
2018-12-26T06:51:57.974Z,34.80
2018-12-26T06:52:57.890Z,35.90
2018-12-26T06:53:57.794Z,37.30
2018-12-26T06:54:57.733Z,35.60
2018-12-26T06:55:57.690Z,34.50
2018-12-26T06:56:57.538Z,33.00
2018-12-26T06:58:00.144Z,32.40
2018-12-26T06:58:57.351Z,31.20
2018-12-26T06:59:57.286Z,31.10
2018-12-26T07:00:57.175Z,31.10
2018-12-26T07:01:57.084Z,31.30
2018-12-26T07:02:57.006Z,31.50
2018-12-26T07:03:56.910Z,30.20
2018-12-26T07:04:56.832Z,29.40
2018-12-26T07:05:56.735Z,30.10
2018-12-26T07:06:56.651Z,30.90
2018-12-26T07:07:56.568Z,30.20
2018-12-26T07:08:56.465Z,30.10
2018-12-26T07:09:56.399Z,28.90
2018-12-26T07:10:56.285Z,30.40
2018-12-26T07:11:56.204Z,30.70
2018-12-26T07:12:56.109Z,30.40
2018-12-26T07:13:56.026Z,29.30
2018-12-26T07:14:55.960Z,30.40
2018-12-26T07:15:55.847Z,28.80
2018-12-26T07:16:55.753Z,29.30
2018-12-26T07:17:55.676Z,29.10
2018-12-26T07:18:55.577Z,29.70
2018-12-26T07:19:55.492Z,28.90
2018-12-26T07:20:55.411Z,30.30
2018-12-26T07:21:55.312Z,28.80
2018-12-26T07:22:55.222Z,29.60
2018-12-26T07:23:55.152Z,31.50
2018-12-26T07:24:55.049Z,30.90
2018-12-26T07:25:54.970Z,30.60
2018-12-26T07:26:54.871Z,31.30
2018-12-26T07:27:54.774Z,32.00
2018-12-26T07:28:54.688Z,32.00
2018-12-26T07:29:54.605Z,30.90
2018-12-26T07:30:54.529Z,30.10
2018-12-26T07:31:54.427Z,29.30
2018-12-26T07:32:54.336Z,30.10
2018-12-26T07:33:54.251Z,29.60
2018-12-26T07:34:54.154Z,30.20
2018-12-26T07:35:54.084Z,29.30
2018-12-26T07:36:53.975Z,29.40
2018-12-26T07:37:53.895Z,28.70
2018-12-26T07:38:53.806Z,28.90
2018-12-26T07:39:53.713Z,28.90
2018-12-26T07:40:53.649Z,29.30
2018-12-26T07:41:53.534Z,28.70
2018-12-26T07:42:53.445Z,31.40
2018-12-26T07:43:53.362Z,29.60
2018-12-26T07:44:53.267Z,28.30
2018-12-26T07:45:53.192Z,27.70
2018-12-26T07:46:53.100Z,28.20
2018-12-26T07:47:53.005Z,27.90
2018-12-26T07:48:52.920Z,28.00
2018-12-26T07:49:52.830Z,27.10
2018-12-26T07:50:52.917Z,27.90
2018-12-26T07:51:52.662Z,28.40
2018-12-26T07:52:52.558Z,28.80
2018-12-26T07:53:52.487Z,28.80
2018-12-26T07:54:52.388Z,30.10
2018-12-26T07:55:52.293Z,28.30
2018-12-26T07:56:52.246Z,28.50
2018-12-26T07:57:52.118Z,29.30
2018-12-26T07:58:52.028Z,28.10
2018-12-26T07:59:51.950Z,28.80
2018-12-26T08:00:51.862Z,28.90
2018-12-26T08:01:51.775Z,29.50
2018-12-26T08:02:51.688Z,29.80
2018-12-26T08:03:51.590Z,31.40
2018-12-26T08:04:51.503Z,32.40
2018-12-26T08:05:51.412Z,32.00
2018-12-26T08:06:51.337Z,32.10
2018-12-26T08:07:51.239Z,31.80
2018-12-26T08:08:51.151Z,31.70
2018-12-26T08:09:51.054Z,30.60
2018-12-26T08:10:50.964Z,29.10
2018-12-26T08:11:50.897Z,30.70
2018-12-26T08:12:50.903Z,30.70
2018-12-26T08:13:50.699Z,29.50
2018-12-26T08:14:50.623Z,29.10
2018-12-26T08:15:50.521Z,28.20
2018-12-26T08:16:50.462Z,29.00
2018-12-26T08:17:50.353Z,29.00
2018-12-26T08:18:50.262Z,27.60
2018-12-26T08:19:50.166Z,28.10
2018-12-26T08:20:50.114Z,28.40
2018-12-26T08:21:49.990Z,28.40
2018-12-26T08:22:49.920Z,28.40
2018-12-26T08:23:49.926Z,28.10
2018-12-26T08:24:49.723Z,27.90
2018-12-26T08:25:49.636Z,27.20
2018-12-26T08:26:49.552Z,28.10
2018-12-26T08:27:49.472Z,28.90
2018-12-26T08:28:49.374Z,28.30
2018-12-26T08:29:49.280Z,28.70
2018-12-26T08:30:49.221Z,28.40
2018-12-26T08:31:49.129Z,28.90
2018-12-26T08:32:49.028Z,29.30
2018-12-26T08:33:48.931Z,27.80
2018-12-26T08:34:48.975Z,27.20
2018-12-26T08:35:48.755Z,28.00
2018-12-26T08:36:48.670Z,28.30
2018-12-26T08:37:48.600Z,28.20
2018-12-26T08:38:48.486Z,27.70
2018-12-26T08:39:48.403Z,28.20
2018-12-26T08:40:48.446Z,27.50
2018-12-26T08:41:48.217Z,28.00
2018-12-26T08:42:48.236Z,27.70
2018-12-26T08:43:48.043Z,27.20
2018-12-26T08:44:47.954Z,28.10
2018-12-26T08:45:48.022Z,28.20
2018-12-26T08:46:47.774Z,28.00
2018-12-26T08:47:47.699Z,27.60
2018-12-26T08:48:47.633Z,28.00
2018-12-26T08:49:47.510Z,27.80
2018-12-26T08:50:47.419Z,27.30
2018-12-26T08:51:47.452Z,28.10
2018-12-26T08:52:47.258Z,28.00
2018-12-26T08:53:47.157Z,28.30
2018-12-26T08:54:47.265Z,28.30
2018-12-26T08:55:46.978Z,27.20
2018-12-26T08:56:47.073Z,27.10
2018-12-26T08:57:46.819Z,26.50
2018-12-26T08:58:46.878Z,27.60
2018-12-26T08:59:46.628Z,27.60
2018-12-26T09:00:46.686Z,26.90
2018-12-26T09:01:46.455Z,25.80
2018-12-26T09:02:46.526Z,29.30
2018-12-26T09:03:46.286Z,28.60
2018-12-26T09:04:46.191Z,26.80
2018-12-26T09:05:46.311Z,26.60
2018-12-26T09:06:46.013Z,26.60
2018-12-26T09:07:45.959Z,26.10
2018-12-26T09:08:45.920Z,26.10
2018-12-26T09:09:45.758Z,26.00
2018-12-26T09:10:45.662Z,27.40
2018-12-26T09:11:45.624Z,27.60
2018-12-26T09:12:45.493Z,26.40
2018-12-26T09:13:45.412Z,25.80
2018-12-26T09:14:45.335Z,25.70
2018-12-26T09:15:45.225Z,26.40
2018-12-26T09:16:51.800Z,27.40
2018-12-26T09:17:45.052Z,25.80
2018-12-26T09:18:47.123Z,25.10
2018-12-26T09:19:46.128Z,26.20
2018-12-26T09:20:44.791Z,25.40
2018-12-26T09:21:44.870Z,25.30
2018-12-26T09:22:44.618Z,25.40
2018-12-26T09:23:44.541Z,25.40
2018-12-26T09:24:44.486Z,24.60
2018-12-26T09:25:44.360Z,24.80
2018-12-26T09:26:44.292Z,24.40
2018-12-26T09:27:44.213Z,24.50
2018-12-26T09:28:44.193Z,24.90
2018-12-26T09:29:44.007Z,24.10
2018-12-26T09:30:43.920Z,23.90
2018-12-26T09:31:44.124Z,24.00
2018-12-26T09:32:43.749Z,23.70
2018-12-26T09:33:43.677Z,24.10
2018-12-26T09:34:43.633Z,24.30
2018-12-26T09:35:43.487Z,25.40
2018-12-26T09:36:43.410Z,24.10
2018-12-26T09:37:43.550Z,23.70
2018-12-26T09:38:43.245Z,23.30
2018-12-26T09:39:43.147Z,24.30
2018-12-26T09:40:43.366Z,24.20
2018-12-26T09:41:42.971Z,23.70
2018-12-26T09:42:43.173Z,24.60
2018-12-26T09:43:42.842Z,23.10
2018-12-26T09:44:43.096Z,23.70
2018-12-26T09:45:42.627Z,22.90
2018-12-26T09:46:42.792Z,23.10
2018-12-26T09:47:42.458Z,23.70
2018-12-26T09:48:42.601Z,22.90
2018-12-26T09:49:42.293Z,23.40
2018-12-26T09:50:42.196Z,23.20
2018-12-26T09:51:42.415Z,22.90
2018-12-26T09:52:42.019Z,22.30
2018-12-26T09:53:41.933Z,22.70
2018-12-26T09:54:41.957Z,22.60
2018-12-26T09:55:41.759Z,21.50
2018-12-26T09:56:41.683Z,22.40
2018-12-26T09:57:41.593Z,21.70
2018-12-26T09:58:41.544Z,22.20
2018-12-26T09:59:41.431Z,21.90
2018-12-26T10:00:41.329Z,23.30
2018-12-26T10:01:41.250Z,22.70
2018-12-26T10:02:41.264Z,22.90
2018-12-26T10:03:41.078Z,22.20
2018-12-26T10:04:41.092Z,22.50
2018-12-26T10:05:41.080Z,21.80
2018-12-26T10:06:40.810Z,21.80
2018-12-26T10:07:40.889Z,20.70
2018-12-26T10:08:40.639Z,21.90
2018-12-26T10:09:40.747Z,21.80
2018-12-26T10:10:40.471Z,21.00
2018-12-26T10:11:40.406Z,21.60
2018-12-26T10:12:40.301Z,21.10
2018-12-26T10:13:40.422Z,22.00
2018-12-26T10:14:40.145Z,20.90
2018-12-26T10:15:40.044Z,21.60
2018-12-26T10:16:40.037Z,20.00
2018-12-26T10:17:39.865Z,22.40
2018-12-26T10:18:39.792Z,20.40
2018-12-26T10:19:39.868Z,20.80
2018-12-26T10:20:39.607Z,22.10
2018-12-26T10:21:39.520Z,20.60
2018-12-26T10:22:40.481Z,20.10
2018-12-26T10:23:39.349Z,20.90
2018-12-26T10:24:39.314Z,21.40
2018-12-26T10:25:39.287Z,20.50
2018-12-26T10:26:39.097Z,20.80
2018-12-26T10:27:39.088Z,20.30
2018-12-26T10:28:38.939Z,20.50
2018-12-26T10:29:38.896Z,21.00
2018-12-26T10:30:38.762Z,20.00
2018-12-26T10:31:38.700Z,20.60
2018-12-26T10:32:38.577Z,20.60
2018-12-26T10:33:39.532Z,21.30
2018-12-26T10:34:38.408Z,20.50
2018-12-26T10:35:38.566Z,20.30
2018-12-26T10:36:38.258Z,20.50
2018-12-26T10:37:38.320Z,20.80
2018-12-26T10:38:40.018Z,19.80
2018-12-26T10:39:38.126Z,20.70
2018-12-26T10:40:37.904Z,19.80
2018-12-26T10:41:37.802Z,19.50
2018-12-26T10:42:37.747Z,19.30
2018-12-26T10:43:37.632Z,19.20
2018-12-26T10:44:37.553Z,19.30
2018-12-26T10:45:37.599Z,19.70
2018-12-26T10:46:37.393Z,18.40
2018-12-26T10:47:37.293Z,19.30
2018-12-26T10:48:38.409Z,19.10
2018-12-26T10:49:37.635Z,19.30
2018-12-26T10:50:37.053Z,18.00
2018-12-26T10:51:36.955Z,18.30
2018-12-26T10:52:37.001Z,17.90
2018-12-26T10:53:36.781Z,17.80
2018-12-26T10:54:36.693Z,18.10
2018-12-26T10:55:36.631Z,17.20
2018-12-26T10:56:36.605Z,17.80
2018-12-26T10:57:36.441Z,18.00
2018-12-26T10:58:36.460Z,18.80
2018-12-26T10:59:36.455Z,19.60
2018-12-26T11:00:37.351Z,18.30
2018-12-26T11:01:36.112Z,18.30
2018-12-26T11:02:36.027Z,19.20
2018-12-26T11:03:35.974Z,19.40
2018-12-26T11:04:36.039Z,17.80
2018-12-26T11:05:38.661Z,18.00
2018-12-26T11:06:36.646Z,19.00
2018-12-26T11:07:35.602Z,17.80
2018-12-26T11:08:39.653Z,18.20
2018-12-26T11:09:35.432Z,19.00
2018-12-26T11:10:35.332Z,17.50
2018-12-26T11:11:36.324Z,18.70
2018-12-26T11:12:35.174Z,20.10
2018-12-26T11:13:35.076Z,18.80
2018-12-26T11:14:36.648Z,17.50
2018-12-26T11:15:34.913Z,19.20
2018-12-26T11:16:34.865Z,18.30
2018-12-26T11:17:34.907Z,19.10
2018-12-26T11:18:34.657Z,17.70
2018-12-26T11:19:34.568Z,17.40
2018-12-26T11:20:34.507Z,17.50
2018-12-26T11:21:34.413Z,17.90
2018-12-26T11:22:34.520Z,19.00
2018-12-26T11:23:34.229Z,19.60
2018-12-26T11:24:34.329Z,19.80
2018-12-26T11:25:34.059Z,19.70
2018-12-26T11:26:33.987Z,19.50
2018-12-26T11:27:33.938Z,18.80
2018-12-26T11:28:33.811Z,19.00
2018-12-26T11:29:33.719Z,19.20
2018-12-26T11:30:33.825Z,18.00
2018-12-26T11:31:33.784Z,18.50
2018-12-26T11:32:33.466Z,18.20
2018-12-26T11:33:33.573Z,18.30
2018-12-26T11:34:33.296Z,18.10
2018-12-26T11:35:33.219Z,18.00
2018-12-26T11:36:33.139Z,18.50
2018-12-26T11:37:33.187Z,17.80
2018-12-26T11:38:32.958Z,17.60
2018-12-26T11:39:32.870Z,18.30
2018-12-26T11:40:35.144Z,17.50
2018-12-26T11:41:32.731Z,17.20
2018-12-26T11:42:32.623Z,17.80
2018-12-26T11:43:32.612Z,17.20
2018-12-26T11:44:32.461Z,18.50
2018-12-26T11:45:32.369Z,18.70
2018-12-26T11:46:32.431Z,16.50
2018-12-26T11:47:32.212Z,17.60
2018-12-26T11:48:32.239Z,18.20
2018-12-26T11:49:32.030Z,17.30
2018-12-26T11:50:32.049Z,17.30
2018-12-26T11:51:31.919Z,17.60
2018-12-26T11:52:34.196Z,18.30
2018-12-26T11:53:31.698Z,18.20
2018-12-26T11:54:31.661Z,16.80
2018-12-26T11:55:31.524Z,18.00
2018-12-26T11:56:31.443Z,17.50
2018-12-26T11:57:31.515Z,16.80
2018-12-26T11:58:31.266Z,17.10
2018-12-26T11:59:31.235Z,16.40
2018-12-26T12:00:31.293Z,17.30
2018-12-26T12:01:31.017Z,17.20
2018-12-26T12:02:30.951Z,17.90
2018-12-26T12:03:30.909Z,17.00
2018-12-26T12:04:30.767Z,17.60
2018-12-26T12:05:30.677Z,17.60
2018-12-26T12:06:30.717Z,16.60
2018-12-26T12:07:30.504Z,17.20
2018-12-26T12:08:30.556Z,16.60
2018-12-26T12:09:30.339Z,16.80
2018-12-26T12:10:30.337Z,16.70
2018-12-26T12:11:30.163Z,16.90
2018-12-26T12:12:30.085Z,16.60
2018-12-26T12:13:30.184Z,17.00
2018-12-26T12:14:29.910Z,17.70
2018-12-26T12:15:29.854Z,17.00
2018-12-26T12:16:29.762Z,17.30
2018-12-26T12:17:29.661Z,16.40
2018-12-26T12:18:29.806Z,16.70
2018-12-26T12:19:29.489Z,16.70
2018-12-26T12:20:29.586Z,16.50
2018-12-26T12:21:29.325Z,16.70
2018-12-26T12:22:29.390Z,17.10
2018-12-26T12:23:29.173Z,16.00
2018-12-26T12:24:29.198Z,16.40
2018-12-26T12:25:29.008Z,15.90
2018-12-26T12:26:28.928Z,15.50
2018-12-26T12:27:29.015Z,16.10
2018-12-26T12:28:28.746Z,15.90
2018-12-26T12:29:35.771Z,16.30
2018-12-26T12:30:28.629Z,16.30
2018-12-26T12:31:28.488Z,16.30
2018-12-26T12:32:28.402Z,16.30
2018-12-26T12:33:28.469Z,15.40
2018-12-26T12:34:28.228Z,15.90
2018-12-26T12:35:28.246Z,16.20
2018-12-26T12:36:28.072Z,15.50
2018-12-26T12:37:27.986Z,16.40
2018-12-26T12:38:28.065Z,16.00
2018-12-26T12:39:27.820Z,16.20
2018-12-26T12:40:27.723Z,14.80
2018-12-26T12:41:27.674Z,15.20
2018-12-26T12:42:27.552Z,15.10
2018-12-26T12:43:27.687Z,15.90
2018-12-26T12:44:27.415Z,15.70
2018-12-26T12:45:27.497Z,15.40
2018-12-26T12:46:27.221Z,16.10
2018-12-26T12:47:27.313Z,16.10
2018-12-26T12:48:27.062Z,16.10
2018-12-26T12:49:27.147Z,16.60
2018-12-26T12:50:26.879Z,17.20
2018-12-26T12:51:26.800Z,15.70